createdAt,value
2017-08-25T00:00:30.604Z,0
2017-08-25T00:01:30.914Z,0
2017-08-25T00:02:31.875Z,0
2017-08-25T00:03:30.894Z,0
2017-08-25T00:04:31.536Z,0
2017-08-25T00:05:30.550Z,0
2017-08-25T00:06:31.188Z,0
2017-08-25T00:07:31.498Z,0
2017-08-25T00:08:30.884Z,0
2017-08-25T00:09:31.148Z,0
2017-08-25T00:10:31.140Z,0
2017-08-25T00:11:31.126Z,0
2017-08-25T00:12:30.791Z,0
2017-08-25T00:13:31.430Z,0
2017-08-25T00:14:31.095Z,0
2017-08-25T00:15:31.089Z,0
2017-08-25T00:16:31.709Z,0
2017-08-25T00:17:31.387Z,0
2017-08-25T00:18:30.776Z,0
2017-08-25T00:19:30.717Z,0
2017-08-25T00:20:31.351Z,0
2017-08-25T00:21:31.074Z,0
2017-08-25T00:22:30.723Z,0
2017-08-25T00:23:31.357Z,0
2017-08-25T00:24:30.699Z,0
2017-08-25T00:25:31.029Z,0
2017-08-25T00:26:31.283Z,0
2017-08-25T00:27:30.952Z,0
2017-08-25T00:28:31.265Z,0
2017-08-25T00:29:31.245Z,0
2017-08-25T00:30:31.253Z,0
2017-08-25T00:31:31.225Z,0
2017-08-25T00:32:30.893Z,0
2017-08-25T00:33:30.879Z,0
2017-08-25T00:34:31.200Z,0
2017-08-25T00:35:30.872Z,0
2017-08-25T00:36:31.166Z,0
2017-08-25T00:37:31.168Z,0
2017-08-25T00:38:30.884Z,0
2017-08-25T00:39:30.821Z,0
2017-08-25T00:40:30.843Z,0
2017-08-25T00:41:30.795Z,0
2017-08-25T00:42:30.784Z,0
2017-08-25T00:43:30.502Z,0
2017-08-25T00:44:30.758Z,0
2017-08-25T00:45:31.075Z,0
2017-08-25T00:46:31.057Z,0
2017-08-25T00:47:30.405Z,0
2017-08-25T00:48:30.762Z,0
2017-08-25T00:49:30.725Z,0
2017-08-25T00:50:30.700Z,0
2017-08-25T00:51:31.006Z,0
2017-08-25T00:52:30.353Z,0
2017-08-25T00:53:30.666Z,0
2017-08-25T00:54:30.339Z,0
2017-08-25T00:55:29.999Z,0
2017-08-25T00:56:30.943Z,0
2017-08-25T00:57:30.616Z,0
2017-08-25T00:58:30.600Z,0
2017-08-25T00:59:30.267Z,0
2017-08-25T01:00:30.580Z,0
2017-08-25T01:01:30.251Z,0
2017-08-25T01:02:30.558Z,0
2017-08-25T01:03:30.224Z,0
2017-08-25T01:04:30.213Z,0
2017-08-25T01:05:30.530Z,0
2017-08-25T01:06:30.511Z,0
2017-08-25T01:07:30.497Z,0
2017-08-25T01:08:30.170Z,0
2017-08-25T01:09:30.478Z,0
2017-08-25T01:10:30.810Z,0
2017-08-25T01:11:30.136Z,0
2017-08-25T01:12:30.470Z,0
2017-08-25T01:13:30.127Z,0
2017-08-25T01:14:30.793Z,0
2017-08-25T01:15:30.740Z,0
2017-08-25T01:16:30.077Z,0
2017-08-25T01:17:30.708Z,0
2017-08-25T01:18:30.061Z,0
2017-08-25T01:19:29.772Z,0
2017-08-25T01:20:30.036Z,0
2017-08-25T01:21:30.664Z,0
2017-08-25T01:22:30.331Z,0
2017-08-25T01:23:30.004Z,0
2017-08-25T01:24:29.663Z,0
2017-08-25T01:25:30.942Z,0
2017-08-25T01:26:30.289Z,0
2017-08-25T01:27:30.278Z,0
2017-08-25T01:28:30.263Z,0
2017-08-25T01:29:29.932Z,0
2017-08-25T01:30:30.262Z,0
2017-08-25T01:31:30.543Z,0
2017-08-25T01:32:29.899Z,0
2017-08-25T01:33:30.224Z,0
2017-08-25T01:34:30.516Z,0
2017-08-25T01:35:30.178Z,0
2017-08-25T01:36:30.819Z,0
2017-08-25T01:37:30.482Z,0
2017-08-25T01:38:30.144Z,0
2017-08-25T01:39:30.130Z,0
2017-08-25T01:40:29.804Z,0
2017-08-25T01:41:30.110Z,0
2017-08-25T01:42:30.096Z,0
2017-08-25T01:43:29.771Z,0
2017-08-25T01:44:29.438Z,0
2017-08-25T01:45:30.070Z,0
2017-08-25T01:46:29.733Z,0
2017-08-25T01:47:30.043Z,0
2017-08-25T01:48:30.024Z,0
2017-08-25T01:49:30.072Z,0
2017-08-25T01:50:29.683Z,0
2017-08-25T01:51:30.001Z,0
2017-08-25T01:52:29.687Z,0
2017-08-25T01:53:29.656Z,0
2017-08-25T01:54:29.961Z,0
2017-08-25T01:55:29.951Z,0
2017-08-25T01:56:29.938Z,0
2017-08-25T01:57:30.545Z,0
2017-08-25T01:58:29.594Z,0
2017-08-25T01:59:30.221Z,0
2017-08-25T02:00:29.889Z,0
2017-08-25T02:01:29.886Z,0
2017-08-25T02:02:30.511Z,0
2017-08-25T02:03:29.558Z,0
2017-08-25T02:04:30.164Z,0
2017-08-25T02:05:29.191Z,0
2017-08-25T02:06:29.813Z,0
2017-08-25T02:07:30.149Z,0
2017-08-25T02:08:29.795Z,0
2017-08-25T02:09:29.483Z,0
2017-08-25T02:10:30.418Z,0
2017-08-25T02:11:29.779Z,0
2017-08-25T02:12:29.113Z,0
2017-08-25T02:13:30.058Z,0
2017-08-25T02:14:30.364Z,0
2017-08-25T02:15:30.053Z,0
2017-08-25T02:16:29.706Z,0
2017-08-25T02:17:30.338Z,0
2017-08-25T02:18:29.357Z,0
2017-08-25T02:19:29.666Z,0
2017-08-25T02:20:29.703Z,0
2017-08-25T02:21:29.323Z,0
2017-08-25T02:22:29.309Z,0
2017-08-25T02:23:29.956Z,0
2017-08-25T02:24:29.283Z,0
2017-08-25T02:25:29.597Z,0
2017-08-25T02:26:29.261Z,0
2017-08-25T02:27:29.890Z,0
2017-08-25T02:28:29.552Z,0
2017-08-25T02:29:29.885Z,0
2017-08-25T02:30:30.254Z,0
2017-08-25T02:31:29.550Z,0
2017-08-25T02:32:29.524Z,0
2017-08-25T02:33:29.182Z,0
2017-08-25T02:34:29.825Z,0
2017-08-25T02:35:29.802Z,0
2017-08-25T02:36:29.793Z,0
2017-08-25T02:37:29.780Z,0
2017-08-25T02:38:29.768Z,0
2017-08-25T02:39:29.782Z,0
2017-08-25T02:40:29.095Z,0
2017-08-25T02:41:29.087Z,0
2017-08-25T02:42:29.389Z,0
2017-08-25T02:43:29.379Z,0
2017-08-25T02:44:29.691Z,0
2017-08-25T02:45:29.364Z,0
2017-08-25T02:46:29.025Z,0
2017-08-25T02:47:29.664Z,0
2017-08-25T02:48:29.311Z,0
2017-08-25T02:49:28.664Z,0
2017-08-25T02:50:29.683Z,0
2017-08-25T02:51:28.637Z,0
2017-08-25T02:52:28.950Z,0
2017-08-25T02:53:29.260Z,0
2017-08-25T02:54:28.924Z,0
2017-08-25T02:55:28.963Z,0
2017-08-25T02:56:29.215Z,0
2017-08-25T02:57:28.887Z,0
2017-08-25T02:58:29.198Z,0
2017-08-25T02:59:29.505Z,0
2017-08-25T03:00:28.849Z,0
2017-08-25T03:01:29.475Z,0
2017-08-25T03:02:29.142Z,0
2017-08-25T03:03:29.136Z,0
2017-08-25T03:04:29.451Z,0
2017-08-25T03:05:29.103Z,0
2017-08-25T03:06:29.123Z,0
2017-08-25T03:07:29.413Z,0
2017-08-25T03:08:29.710Z,0
2017-08-25T03:09:29.380Z,0
2017-08-25T03:10:28.718Z,0
2017-08-25T03:11:29.350Z,0
2017-08-25T03:12:29.360Z,0
2017-08-25T03:13:29.006Z,0
2017-08-25T03:14:28.677Z,0
2017-08-25T03:15:28.669Z,0
2017-08-25T03:16:28.970Z,0
2017-08-25T03:17:28.962Z,0
2017-08-25T03:18:28.635Z,0
2017-08-25T03:19:28.936Z,0
2017-08-25T03:20:28.919Z,0
2017-08-25T03:21:29.601Z,0
2017-08-25T03:22:28.899Z,0
2017-08-25T03:23:29.203Z,0
2017-08-25T03:24:29.197Z,0
2017-08-25T03:25:28.534Z,0
2017-08-25T03:26:28.899Z,0
2017-08-25T03:27:28.190Z,0
2017-08-25T03:28:29.144Z,0
2017-08-25T03:29:29.127Z,0
2017-08-25T03:30:29.470Z,0
2017-08-25T03:31:28.138Z,0
2017-08-25T03:32:28.449Z,0
2017-08-25T03:33:28.439Z,0
2017-08-25T03:34:28.421Z,0
2017-08-25T03:35:28.407Z,0
2017-08-25T03:36:28.400Z,0
2017-08-25T03:37:28.712Z,0
2017-08-25T03:38:29.017Z,0
2017-08-25T03:39:29.320Z,0
2017-08-25T03:40:28.347Z,0
2017-08-25T03:41:28.656Z,0
2017-08-25T03:42:28.975Z,0
2017-08-25T03:43:28.310Z,0
2017-08-25T03:44:28.297Z,0
2017-08-25T03:45:28.297Z,0
2017-08-25T03:46:28.597Z,0
2017-08-25T03:47:28.588Z,0
2017-08-25T03:48:28.249Z,0
2017-08-25T03:49:28.896Z,0
2017-08-25T03:50:28.535Z,0
2017-08-25T03:51:29.170Z,0
2017-08-25T03:52:28.198Z,0
2017-08-25T03:53:28.507Z,0
2017-08-25T03:54:28.802Z,0
2017-08-25T03:55:28.158Z,0
2017-08-25T03:56:28.779Z,0
2017-08-25T03:57:28.822Z,0
2017-08-25T03:58:28.757Z,0
2017-08-25T03:59:28.429Z,0
2017-08-25T04:00:28.740Z,0
2017-08-25T04:01:28.746Z,0
2017-08-25T04:02:28.389Z,0
2017-08-25T04:03:28.701Z,0
2017-08-25T04:04:28.683Z,0
2017-08-25T04:05:28.991Z,0
2017-08-25T04:06:28.341Z,0
2017-08-25T04:07:28.689Z,0
2017-08-25T04:08:28.312Z,0
2017-08-25T04:09:28.299Z,0
2017-08-25T04:10:28.280Z,0
2017-08-25T04:11:28.600Z,0
2017-08-25T04:12:28.899Z,0
2017-08-25T04:13:28.885Z,0
2017-08-25T04:14:27.911Z,0
2017-08-25T04:15:27.579Z,0
2017-08-25T04:16:27.884Z,0
2017-08-25T04:17:27.871Z,0
2017-08-25T04:18:28.820Z,0
2017-08-25T04:19:27.844Z,0
2017-08-25T04:20:28.150Z,0
2017-08-25T04:21:28.458Z,0
2017-08-25T04:22:28.177Z,0
2017-08-25T04:23:27.798Z,0
2017-08-25T04:24:28.423Z,0
2017-08-25T04:25:28.084Z,0
2017-08-25T04:26:27.777Z,0
2017-08-25T04:27:27.736Z,0
2017-08-25T04:28:27.401Z,0
2017-08-25T04:29:28.032Z,0
2017-08-25T04:30:28.016Z,0
2017-08-25T04:31:28.340Z,0
2017-08-25T04:32:27.719Z,0
2017-08-25T04:33:27.987Z,0
2017-08-25T04:34:27.647Z,0
2017-08-25T04:35:27.949Z,0
2017-08-25T04:36:28.261Z,5
2017-08-25T04:37:27.938Z,5
2017-08-25T04:38:28.550Z,5
2017-08-25T04:39:27.938Z,5
2017-08-25T04:40:28.208Z,5
2017-08-25T04:41:27.548Z,5
2017-08-25T04:42:27.867Z,5
2017-08-25T04:43:27.520Z,5
2017-08-25T04:44:27.844Z,10
2017-08-25T04:45:27.836Z,10
2017-08-25T04:46:28.140Z,10
2017-08-25T04:47:28.442Z,10
2017-08-25T04:48:27.776Z,10
2017-08-25T04:49:27.774Z,10
2017-08-25T04:50:28.078Z,10
2017-08-25T04:51:27.774Z,10
2017-08-25T04:52:28.049Z,15
2017-08-25T04:53:27.394Z,15
2017-08-25T04:54:28.344Z,15
2017-08-25T04:55:27.688Z,15
2017-08-25T04:56:28.000Z,20
2017-08-25T04:57:27.022Z,20
2017-08-25T04:58:27.651Z,20
2017-08-25T04:59:27.317Z,20
2017-08-25T05:00:27.298Z,25
2017-08-25T05:01:27.629Z,25
2017-08-25T05:02:27.601Z,25
2017-08-25T05:03:27.608Z,25
2017-08-25T05:04:27.568Z,30
2017-08-25T05:05:27.231Z,30
2017-08-25T05:06:27.220Z,30
2017-08-25T05:07:27.852Z,30
2017-08-25T05:08:27.189Z,30
2017-08-25T05:09:27.865Z,30
2017-08-25T05:10:28.140Z,30
2017-08-25T05:11:28.114Z,30
2017-08-25T05:12:27.464Z,30
2017-08-25T05:13:27.774Z,30
2017-08-25T05:14:27.758Z,30
2017-08-25T05:15:27.422Z,30
2017-08-25T05:16:27.732Z,35
2017-08-25T05:17:27.093Z,35
2017-08-25T05:18:27.383Z,35
2017-08-25T05:19:27.373Z,35
2017-08-25T05:20:27.689Z,35
2017-08-25T05:21:27.678Z,40
2017-08-25T05:22:27.019Z,40
2017-08-25T05:23:27.650Z,40
2017-08-25T05:24:27.308Z,40
2017-08-25T05:25:27.961Z,40
2017-08-25T05:26:27.299Z,40
2017-08-25T05:27:26.949Z,45
2017-08-25T05:28:27.271Z,40
2017-08-25T05:29:27.568Z,40
2017-08-25T05:30:27.225Z,40
2017-08-25T05:31:27.218Z,45
2017-08-25T05:32:27.206Z,45
2017-08-25T05:33:26.873Z,50
2017-08-25T05:34:27.494Z,50
2017-08-25T05:35:27.485Z,50
2017-08-25T05:36:27.465Z,50
2017-08-25T05:37:27.788Z,50
2017-08-25T05:38:27.131Z,55
2017-08-25T05:39:26.790Z,55
2017-08-25T05:40:26.785Z,55
2017-08-25T05:41:27.406Z,55
2017-08-25T05:42:27.075Z,55
2017-08-25T05:43:26.742Z,55
2017-08-25T05:44:27.380Z,60
2017-08-25T05:45:26.710Z,60
2017-08-25T05:46:27.347Z,60
2017-08-25T05:47:27.016Z,60
2017-08-25T05:48:27.341Z,60
2017-08-25T05:49:26.992Z,60
2017-08-25T05:50:26.652Z,60
2017-08-25T05:51:26.964Z,60
2017-08-25T05:52:26.959Z,55
2017-08-25T05:53:27.582Z,55
2017-08-25T05:54:26.923Z,55
2017-08-25T05:55:26.919Z,55
2017-08-25T05:56:26.902Z,55
2017-08-25T05:57:26.576Z,55
2017-08-25T05:58:27.428Z,55
2017-08-25T05:59:26.554Z,55
2017-08-25T06:00:27.169Z,55
2017-08-25T06:01:26.527Z,60
2017-08-25T06:02:26.828Z,60
2017-08-25T06:03:26.505Z,60
2017-08-25T06:04:26.805Z,60
2017-08-25T06:05:26.794Z,65
2017-08-25T06:06:26.463Z,70
2017-08-25T06:07:27.412Z,70
2017-08-25T06:08:27.080Z,75
2017-08-25T06:09:26.422Z,75
2017-08-25T06:10:27.059Z,80
2017-08-25T06:11:26.409Z,80
2017-08-25T06:12:26.720Z,80
2017-08-25T06:13:26.712Z,85
2017-08-25T06:14:27.015Z,85
2017-08-25T06:15:26.674Z,80
2017-08-25T06:16:26.664Z,80
2017-08-25T06:17:27.299Z,80
2017-08-25T06:18:26.319Z,80
2017-08-25T06:19:27.274Z,80
2017-08-25T06:20:26.614Z,80
2017-08-25T06:21:27.247Z,75
2017-08-25T06:22:26.591Z,75
2017-08-25T06:23:26.271Z,75
2017-08-25T06:24:26.253Z,75
2017-08-25T06:25:26.561Z,75
2017-08-25T06:26:27.191Z,75
2017-08-25T06:27:26.215Z,75
2017-08-25T06:28:25.881Z,75
2017-08-25T06:29:25.916Z,75
2017-08-25T06:30:26.512Z,80
2017-08-25T06:31:26.486Z,85
2017-08-25T06:32:27.114Z,85
2017-08-25T06:33:26.465Z,90
2017-08-25T06:34:26.133Z,90
2017-08-25T06:35:26.180Z,95
2017-08-25T06:36:26.826Z,95
2017-08-25T06:37:26.107Z,95
2017-08-25T06:38:26.403Z,95
2017-08-25T06:39:26.606Z,95
2017-08-25T06:40:26.391Z,95
2017-08-25T06:41:26.056Z,90
2017-08-25T06:42:26.684Z,95
2017-08-25T06:43:26.037Z,95
2017-08-25T06:44:25.699Z,95
2017-08-25T06:45:26.010Z,95
2017-08-25T06:46:26.318Z,95
2017-08-25T06:47:26.314Z,100
2017-08-25T06:48:26.305Z,100
2017-08-25T06:49:26.291Z,105
2017-08-25T06:50:26.600Z,110
2017-08-25T06:51:26.599Z,110
2017-08-25T06:52:26.251Z,110
2017-08-25T06:53:26.888Z,105
2017-08-25T06:54:25.919Z,105
2017-08-25T06:55:25.578Z,105
2017-08-25T06:56:26.881Z,105
2017-08-25T06:57:26.512Z,105
2017-08-25T06:58:26.185Z,105
2017-08-25T06:59:26.826Z,105
2017-08-25T07:00:26.163Z,100
2017-08-25T07:01:26.795Z,100
2017-08-25T07:02:26.141Z,95
2017-08-25T07:03:26.131Z,95
2017-08-25T07:04:26.456Z,100
2017-08-25T07:05:26.436Z,100
2017-08-25T07:06:25.779Z,100
2017-08-25T07:07:26.138Z,100
2017-08-25T07:08:26.396Z,105
2017-08-25T07:09:26.060Z,105
2017-08-25T07:10:26.059Z,110
2017-08-25T07:11:26.365Z,110
2017-08-25T07:12:26.035Z,115
2017-08-25T07:13:26.051Z,115
2017-08-25T07:14:26.018Z,115
2017-08-25T07:15:26.007Z,120
2017-08-25T07:16:26.314Z,120
2017-08-25T07:17:26.513Z,120
2017-08-25T07:18:26.001Z,125
2017-08-25T07:19:25.638Z,125
2017-08-25T07:20:25.662Z,130
2017-08-25T07:21:26.261Z,135
2017-08-25T07:22:25.954Z,135
2017-08-25T07:23:26.247Z,135
2017-08-25T07:24:25.917Z,145
2017-08-25T07:25:26.543Z,150
2017-08-25T07:26:25.895Z,155
2017-08-25T07:27:25.561Z,165
2017-08-25T07:28:25.543Z,170
2017-08-25T07:29:25.858Z,175
2017-08-25T07:30:26.213Z,175
2017-08-25T07:31:26.480Z,180
2017-08-25T07:32:25.185Z,180
2017-08-25T07:33:25.493Z,185
2017-08-25T07:34:25.482Z,190
2017-08-25T07:35:25.798Z,190
2017-08-25T07:36:25.790Z,190
2017-08-25T07:37:25.452Z,190
2017-08-25T07:38:25.460Z,185
2017-08-25T07:39:25.767Z,190
2017-08-25T07:40:25.429Z,195
2017-08-25T07:41:26.377Z,195
2017-08-25T07:42:26.043Z,185
2017-08-25T07:43:25.401Z,180
2017-08-25T07:44:25.709Z,175
2017-08-25T07:45:26.016Z,170
2017-08-25T07:46:25.379Z,175
2017-08-25T07:47:25.357Z,175
2017-08-25T07:48:26.006Z,175
2017-08-25T07:49:25.341Z,175
2017-08-25T07:50:25.980Z,175
2017-08-25T07:51:25.321Z,175
2017-08-25T07:52:26.285Z,180
2017-08-25T07:53:25.304Z,180
2017-08-25T07:54:25.614Z,175
2017-08-25T07:55:25.934Z,175
2017-08-25T07:56:25.603Z,175
2017-08-25T07:57:25.908Z,165
2017-08-25T07:58:26.421Z,155
2017-08-25T07:59:25.572Z,150
2017-08-25T08:00:25.569Z,150
2017-08-25T08:01:26.193Z,150
2017-08-25T08:02:25.550Z,150
2017-08-25T08:03:25.212Z,155
2017-08-25T08:04:25.211Z,155
2017-08-25T08:05:26.184Z,160
2017-08-25T08:06:25.824Z,160
2017-08-25T08:07:25.815Z,170
2017-08-25T08:08:25.828Z,160
2017-08-25T08:09:25.810Z,165
2017-08-25T08:10:25.484Z,160
2017-08-25T08:11:24.823Z,170
2017-08-25T08:12:25.464Z,175
2017-08-25T08:13:25.790Z,180
2017-08-25T08:14:25.765Z,260
2017-08-25T08:15:25.756Z,260
2017-08-25T08:16:25.428Z,215
2017-08-25T08:17:25.745Z,190
2017-08-25T08:18:25.081Z,200
2017-08-25T08:19:25.078Z,190
2017-08-25T08:20:25.068Z,185
2017-08-25T08:21:25.061Z,195
2017-08-25T08:22:25.386Z,200
2017-08-25T08:23:26.003Z,190
2017-08-25T08:24:25.364Z,210
2017-08-25T08:25:25.662Z,240
2017-08-25T08:26:25.347Z,225
2017-08-25T08:27:25.331Z,230
2017-08-25T08:28:25.637Z,275
2017-08-25T08:29:25.658Z,280
2017-08-25T08:30:24.985Z,285
2017-08-25T08:31:24.974Z,250
2017-08-25T08:32:25.292Z,240
2017-08-25T08:33:25.600Z,245
2017-08-25T08:34:24.626Z,245
2017-08-25T08:35:25.264Z,250
2017-08-25T08:36:24.933Z,250
2017-08-25T08:37:24.934Z,240
2017-08-25T08:38:25.559Z,235
2017-08-25T08:39:24.927Z,225
2017-08-25T08:40:25.234Z,255
2017-08-25T08:41:24.577Z,260
2017-08-25T08:42:25.533Z,255
2017-08-25T08:43:25.198Z,260
2017-08-25T08:44:24.876Z,260
2017-08-25T08:45:25.503Z,260
2017-08-25T08:46:25.184Z,255
2017-08-25T08:47:25.494Z,265
2017-08-25T08:48:25.167Z,265
2017-08-25T08:49:24.517Z,275
2017-08-25T08:50:25.471Z,285
2017-08-25T08:51:24.819Z,290
2017-08-25T08:52:25.134Z,290
2017-08-25T08:53:24.819Z,285
2017-08-25T08:54:25.788Z,280
2017-08-25T08:55:24.793Z,275
2017-08-25T08:56:25.422Z,275
2017-08-25T08:57:24.454Z,280
2017-08-25T08:58:24.773Z,290
2017-08-25T08:59:25.083Z,295
2017-08-25T09:00:25.082Z,300
2017-08-25T09:01:25.070Z,305
2017-08-25T09:02:24.425Z,310
2017-08-25T09:03:25.056Z,315
2017-08-25T09:04:25.370Z,325
2017-08-25T09:05:25.359Z,325
2017-08-25T09:06:25.381Z,330
2017-08-25T09:07:24.709Z,355
2017-08-25T09:08:25.033Z,330
2017-08-25T09:09:24.696Z,325
2017-08-25T09:10:24.374Z,325
2017-08-25T09:11:25.008Z,335
2017-08-25T09:12:24.992Z,285
2017-08-25T09:13:24.993Z,280
2017-08-25T09:14:25.300Z,275
2017-08-25T09:15:25.299Z,255
2017-08-25T09:16:25.609Z,255
2017-08-25T09:17:24.651Z,250
2017-08-25T09:18:25.296Z,255
2017-08-25T09:19:24.633Z,250
2017-08-25T09:20:24.946Z,250
2017-08-25T09:21:24.939Z,255
2017-08-25T09:22:24.931Z,265
2017-08-25T09:23:24.926Z,250
2017-08-25T09:24:24.922Z,230
2017-08-25T09:25:24.913Z,215
2017-08-25T09:26:24.919Z,210
2017-08-25T09:27:24.903Z,205
2017-08-25T09:28:25.542Z,205
2017-08-25T09:29:25.213Z,210
2017-08-25T09:30:24.905Z,210
2017-08-25T09:31:24.552Z,205
2017-08-25T09:32:25.188Z,225
2017-08-25T09:33:25.177Z,235
2017-08-25T09:34:24.853Z,250
2017-08-25T09:35:24.849Z,255
2017-08-25T09:36:25.167Z,240
2017-08-25T09:37:24.836Z,240
2017-08-25T09:38:24.524Z,240
2017-08-25T09:39:25.158Z,240
2017-08-25T09:40:24.497Z,235
2017-08-25T09:41:25.124Z,225
2017-08-25T09:42:24.476Z,230
2017-08-25T09:43:24.832Z,230
2017-08-25T09:44:24.466Z,235
2017-08-25T09:45:24.783Z,240
2017-08-25T09:46:24.450Z,245
2017-08-25T09:47:25.087Z,250
2017-08-25T09:48:24.442Z,260
2017-08-25T09:49:24.435Z,275
2017-08-25T09:50:24.749Z,250
2017-08-25T09:51:24.094Z,245
2017-08-25T09:52:24.733Z,245
2017-08-25T09:53:25.367Z,245
2017-08-25T09:54:24.722Z,255
2017-08-25T09:55:24.391Z,245
2017-08-25T09:56:25.028Z,250
2017-08-25T09:57:24.700Z,245
2017-08-25T09:58:24.894Z,240
2017-08-25T09:59:24.681Z,250
2017-08-25T10:00:24.683Z,260
2017-08-25T10:01:24.668Z,270
2017-08-25T10:02:24.343Z,325
2017-08-25T10:03:24.344Z,295
2017-08-25T10:04:24.969Z,280
2017-08-25T10:05:24.962Z,285
2017-08-25T10:06:24.969Z,285
2017-08-25T10:07:24.327Z,290
2017-08-25T10:08:24.633Z,280
2017-08-25T10:09:24.620Z,280
2017-08-25T10:10:24.936Z,285
2017-08-25T10:11:24.284Z,280
2017-08-25T10:12:25.239Z,275
2017-08-25T10:13:24.916Z,280
2017-08-25T10:14:24.947Z,280
2017-08-25T10:15:24.586Z,280
2017-08-25T10:16:24.574Z,280
2017-08-25T10:17:23.927Z,285
2017-08-25T10:18:24.243Z,280
2017-08-25T10:19:24.874Z,280
2017-08-25T10:20:24.553Z,280
2017-08-25T10:21:24.542Z,290
2017-08-25T10:22:24.211Z,290
2017-08-25T10:23:24.855Z,300
2017-08-25T10:24:24.204Z,295
2017-08-25T10:25:24.517Z,310
2017-08-25T10:26:24.513Z,315
2017-08-25T10:27:24.505Z,320
2017-08-25T10:28:25.172Z,330
2017-08-25T10:29:24.173Z,330
2017-08-25T10:30:24.177Z,355
2017-08-25T10:31:24.803Z,360
2017-08-25T10:32:24.165Z,345
2017-08-25T10:33:24.460Z,335
2017-08-25T10:34:24.459Z,345
2017-08-25T10:35:24.452Z,360
2017-08-25T10:36:24.460Z,355
2017-08-25T10:37:24.440Z,345
2017-08-25T10:38:24.438Z,335
2017-08-25T10:39:24.110Z,330
2017-08-25T10:40:24.435Z,345
2017-08-25T10:41:23.777Z,375
2017-08-25T10:42:24.731Z,360
2017-08-25T10:43:24.414Z,350
2017-08-25T10:44:24.725Z,350
2017-08-25T10:45:24.395Z,360
2017-08-25T10:46:24.398Z,365
2017-08-25T10:47:24.710Z,360
2017-08-25T10:48:24.070Z,355
2017-08-25T10:49:24.719Z,345
2017-08-25T10:50:25.015Z,350
2017-08-25T10:51:24.368Z,355
2017-08-25T10:52:24.043Z,360
2017-08-25T10:53:24.045Z,370
2017-08-25T10:54:24.669Z,390
2017-08-25T10:55:24.347Z,430
2017-08-25T10:56:24.341Z,430
2017-08-25T10:57:24.333Z,440
2017-08-25T10:58:24.325Z,515
2017-08-25T10:59:24.644Z,655
2017-08-25T11:00:24.642Z,555
2017-08-25T11:01:24.319Z,575
2017-08-25T11:02:24.998Z,605
2017-08-25T11:03:24.635Z,520
2017-08-25T11:04:24.298Z,515
2017-08-25T11:05:23.984Z,640
2017-08-25T11:06:23.977Z,780
2017-08-25T11:07:24.291Z,770
2017-08-25T11:08:23.962Z,805
2017-08-25T11:09:24.296Z,1015
2017-08-25T11:10:24.283Z,1360
2017-08-25T11:11:24.279Z,1480
2017-08-25T11:12:24.279Z,1420
2017-08-25T11:13:23.950Z,1240
2017-08-25T11:14:24.592Z,1110
2017-08-25T11:15:24.600Z,1215
2017-08-25T11:16:23.943Z,1145
2017-08-25T11:17:24.641Z,1005
2017-08-25T11:18:24.905Z,945
2017-08-25T11:19:24.265Z,925
2017-08-25T11:20:23.940Z,1400
2017-08-25T11:21:23.946Z,1480
2017-08-25T11:22:24.267Z,1265
2017-08-25T11:23:24.271Z,1490
2017-08-25T11:24:24.265Z,1445
2017-08-25T11:25:24.337Z,1360
2017-08-25T11:26:23.940Z,1380
2017-08-25T11:27:24.593Z,1420
2017-08-25T11:28:24.587Z,1305
2017-08-25T11:29:24.588Z,1365
2017-08-25T11:30:23.949Z,1390
2017-08-25T11:31:24.615Z,1460
2017-08-25T11:32:24.594Z,1605
2017-08-25T11:33:24.270Z,1580
2017-08-25T11:34:24.284Z,1575
2017-08-25T11:35:24.598Z,1575
2017-08-25T11:36:24.930Z,1480
2017-08-25T11:37:24.288Z,1480
2017-08-25T11:38:24.940Z,1445
2017-08-25T11:39:24.939Z,1495
2017-08-25T11:40:24.617Z,1400
2017-08-25T11:41:24.309Z,1475
2017-08-25T11:42:24.617Z,1550
2017-08-25T11:43:24.630Z,1605
2017-08-25T11:44:24.057Z,1565
2017-08-25T11:45:23.993Z,1600
2017-08-25T11:46:24.642Z,1570
2017-08-25T11:47:24.357Z,1470
2017-08-25T11:48:24.324Z,1385
2017-08-25T11:49:24.649Z,1195
2017-08-25T11:50:24.336Z,1455
2017-08-25T11:51:24.662Z,1520
2017-08-25T11:52:24.666Z,1470
2017-08-25T11:53:24.681Z,1570
2017-08-25T11:54:24.381Z,1530
2017-08-25T11:55:24.353Z,1555
2017-08-25T11:56:24.358Z,1435
2017-08-25T11:57:23.722Z,1615
2017-08-25T11:58:24.252Z,1580
2017-08-25T11:59:24.097Z,1330
2017-08-25T12:00:24.698Z,1245
2017-08-25T12:01:24.060Z,1250
2017-08-25T12:02:24.390Z,1510
2017-08-25T12:03:24.742Z,1555
2017-08-25T12:04:24.404Z,1470
2017-08-25T12:05:23.759Z,1415
2017-08-25T12:06:24.756Z,1505
2017-08-25T12:07:24.736Z,1405
2017-08-25T12:08:24.100Z,1590
2017-08-25T12:09:24.421Z,1535
2017-08-25T12:10:24.110Z,1540
2017-08-25T12:11:24.747Z,1420
2017-08-25T12:12:23.798Z,1430
2017-08-25T12:13:24.445Z,1425
2017-08-25T12:14:24.130Z,1585
2017-08-25T12:15:24.448Z,1495
2017-08-25T12:16:24.456Z,1430
2017-08-25T12:17:24.477Z,1320
2017-08-25T12:18:24.783Z,1465
2017-08-25T12:19:24.520Z,1515
2017-08-25T12:20:24.799Z,1405
2017-08-25T12:21:24.799Z,1430
2017-08-25T12:22:24.485Z,1310
2017-08-25T12:23:24.489Z,1200
2017-08-25T12:24:24.506Z,1330
2017-08-25T12:25:24.177Z,1335
2017-08-25T12:26:24.534Z,1310
2017-08-25T12:27:24.846Z,1175
2017-08-25T12:28:24.512Z,1090
2017-08-25T12:29:24.521Z,980
2017-08-25T12:30:24.204Z,860
2017-08-25T12:31:24.855Z,1130
2017-08-25T12:32:23.891Z,1180
2017-08-25T12:33:24.208Z,1250
2017-08-25T12:34:24.543Z,1165
2017-08-25T12:35:24.894Z,1250
2017-08-25T12:36:24.554Z,1265
2017-08-25T12:37:24.547Z,1350
2017-08-25T12:38:24.238Z,1405
2017-08-25T12:39:24.562Z,1345
2017-08-25T12:40:24.887Z,1335
2017-08-25T12:41:24.251Z,1215
2017-08-25T12:42:24.575Z,1175
2017-08-25T12:43:25.221Z,1070
2017-08-25T12:44:24.590Z,1095
2017-08-25T12:45:24.265Z,1085
2017-08-25T12:46:24.595Z,1140
2017-08-25T12:47:24.590Z,1105
2017-08-25T12:48:24.595Z,1095
2017-08-25T12:49:24.920Z,1150
2017-08-25T12:50:24.602Z,1245
2017-08-25T12:51:25.254Z,1180
2017-08-25T12:52:24.293Z,1180
2017-08-25T12:53:24.938Z,1135
2017-08-25T12:54:24.995Z,1190
2017-08-25T12:55:24.312Z,1240
2017-08-25T12:56:24.311Z,1260
2017-08-25T12:57:24.315Z,1255
2017-08-25T12:58:24.634Z,1150
2017-08-25T12:59:24.989Z,1060
2017-08-25T13:00:25.281Z,1215
2017-08-25T13:01:24.644Z,1155
2017-08-25T13:02:24.986Z,1030
2017-08-25T13:03:24.322Z,1065
2017-08-25T13:04:24.659Z,985
2017-08-25T13:05:24.671Z,1120
2017-08-25T13:06:24.660Z,1230
2017-08-25T13:07:24.986Z,1160
2017-08-25T13:08:24.347Z,1260
2017-08-25T13:09:24.673Z,940
2017-08-25T13:10:25.000Z,1175
2017-08-25T13:11:24.681Z,1020
2017-08-25T13:12:25.006Z,960
2017-08-25T13:13:24.364Z,1055
2017-08-25T13:14:24.702Z,1010
2017-08-25T13:15:25.020Z,970
2017-08-25T13:16:24.695Z,700
2017-08-25T13:17:25.341Z,845
2017-08-25T13:18:24.389Z,945
2017-08-25T13:19:24.947Z,710
2017-08-25T13:20:24.706Z,840
2017-08-25T13:21:25.052Z,850
2017-08-25T13:22:24.718Z,1045
2017-08-25T13:23:24.082Z,835
2017-08-25T13:24:24.400Z,960
2017-08-25T13:25:24.727Z,1065
2017-08-25T13:26:24.735Z,1060
2017-08-25T13:27:24.095Z,935
2017-08-25T13:28:24.729Z,915
2017-08-25T13:29:24.735Z,860
2017-08-25T13:30:24.740Z,1010
2017-08-25T13:31:24.803Z,960
2017-08-25T13:32:24.745Z,895
2017-08-25T13:33:24.452Z,945
2017-08-25T13:34:24.480Z,1010
2017-08-25T13:35:25.406Z,1065
2017-08-25T13:36:24.443Z,1015
2017-08-25T13:37:24.766Z,1065
2017-08-25T13:38:25.095Z,1095
2017-08-25T13:39:24.458Z,1090
2017-08-25T13:40:24.131Z,1045
2017-08-25T13:41:24.775Z,1035
2017-08-25T13:42:24.793Z,870
2017-08-25T13:43:24.775Z,580
2017-08-25T13:44:25.103Z,755
2017-08-25T13:45:25.436Z,560
2017-08-25T13:46:25.104Z,765
2017-08-25T13:47:24.469Z,770
2017-08-25T13:48:24.789Z,785
2017-08-25T13:49:25.282Z,735
2017-08-25T13:50:25.130Z,685
2017-08-25T13:51:24.802Z,765
2017-08-25T13:52:25.126Z,825
2017-08-25T13:53:25.137Z,735
2017-08-25T13:54:24.493Z,950
2017-08-25T13:55:24.814Z,745
2017-08-25T13:56:24.814Z,880
2017-08-25T13:57:24.811Z,820
2017-08-25T13:58:25.019Z,805
2017-08-25T13:59:25.466Z,740
2017-08-25T14:00:25.150Z,545
2017-08-25T14:01:24.174Z,515
2017-08-25T14:02:24.500Z,515
2017-08-25T14:03:24.819Z,490
2017-08-25T14:04:24.830Z,625
2017-08-25T14:05:24.823Z,550